sensor_id;sensor_type;location;lat;lon;timestamp;pressure;altitude;pressure_sealevel;temperature;humidity
22775;BME280;11554;51.106;3.684;2023-09-19T00:00:00;100908.94;;;12.90;99.7
22775;BME280;11554;51.106;3.684;2023-09-19T00:05:00;100917.75;;;12.89;99.46
22775;BME280;11554;51.106;3.684;2023-09-19T00:10:00;100917.86;;;12.84;99.28
22775;BME280;11554;51.106;3.684;2023-09-19T00:15:00;100918.61;;;12.83;99.03
22775;BME280;11554;51.106;3.684;2023-09-19T00:20:00;100920.45000000001;;;12.82;99.21
22775;BME280;11554;51.106;3.684;2023-09-19T00:25:00;100922.94;;;12.79;99.54
22775;BME280;11554;51.106;3.684;2023-09-19T00:30:00;100920.22;;;12.76;100.0
22775;BME280;11554;51.106;3.684;2023-09-19T00:35:00;100927.01;;;12.71;100.0
22775;BME280;11554;51.106;3.684;2023-09-19T00:40:00;100936.97;;;12.67;100.0
22775;BME280;11554;51.106;3.684;2023-09-19T00:45:00;100927.78;;;12.68;100.0
22775;BME280;11554;51.106;3.684;2023-09-19T00:50:00;100931.89;;;12.67;100.0
22775;BME280;11554;51.106;3.684;2023-09-19T00:55:00;100929.24;;;12.69;100.0
22775;BME280;11554;51.106;3.684;2023-09-19T01:00:00;100938.67;;;12.69;100.0
22775;BME280;11554;51.106;3.684;2023-09-19T01:05:00;100941.66;;;12.71;100.0
22775;BME280;11554;51.106;3.684;2023-09-19T01:10:00;100938.72;;;12.72;100.0
22775;BME280;11554;51.106;3.684;2023-09-19T01:15:02;100937.05;;;12.69;100.0
22775;BME280;11554;51.106;3.684;2023-09-19T01:30:08;100941.5;;;12.71;100.0
22775;BME280;11554;51.106;3.684;2023-09-19T01:35:00;100945.81;;;12.72;100.0
22775;BME280;11554;51.106;3.684;2023-09-19T01:40:01;100947.38;;;12.77;100.0
22775;BME280;11554;51.106;3.684;2023-09-19T01:45:03;100943.72;;;12.78;100.0
22775;BME280;11554;51.106;3.684;2023-09-19T01:50:01;100944.87000000001;;;12.78;100.0
22775;BME280;11554;51.106;3.684;2023-09-19T01:55:01;100943.81;;;12.80;100.0
22775;BME280;11554;51.106;3.684;2023-09-19T02:00:01;100946.77;;;12.80;100.0
22775;BME280;11554;51.106;3.684;2023-09-19T02:05:00;100942.24;;;12.84;100.0
22775;BME280;11554;51.106;3.684;2023-09-19T02:10:00;100941.33;;;12.88;100.0
22775;BME280;11554;51.106;3.684;2023-09-19T02:15:00;100939.9;;;12.92;100.0
22775;BME280;11554;51.106;3.684;2023-09-19T02:20:00;100934.3;;;12.94;100.0
22775;BME280;11554;51.106;3.684;2023-09-19T02:25:00;100939.98;;;12.93;100.0
22775;BME280;11554;51.106;3.684;2023-09-19T02:30:00;100942.11;;;12.97;100.0
22775;BME280;11554;51.106;3.684;2023-09-19T02:35:00;100953.42000000001;;;13.03;100.0
22775;BME280;11554;51.106;3.684;2023-09-19T02:40:00;100960.38;;;13.10;100.0
22775;BME280;11554;51.106;3.684;2023-09-19T02:45:00;100958.64;;;13.15;100.0
22775;BME280;11554;51.106;3.684;2023-09-19T02:50:00;100972.94;;;13.26;100.0
22775;BME280;11554;51.106;3.684;2023-09-19T02:55:00;100973.83;;;13.35;100.0
22775;BME280;11554;51.106;3.684;2023-09-19T03:00:00;100968.59;;;13.39;100.0
22775;BME280;11554;51.106;3.684;2023-09-19T03:05:00;100964.5;;;13.41;100.0
22775;BME280;11554;51.106;3.684;2023-09-19T03:10:00;100963.37;;;13.44;100.0
22775;BME280;11554;51.106;3.684;2023-09-19T03:15:00;100969.06;;;13.47;100.0
22775;BME280;11554;51.106;3.684;2023-09-19T03:20:00;100977.94;;;13.52;100.0
22775;BME280;11554;51.106;3.684;2023-09-19T03:25:00;100980.6;;;13.61;100.0
22775;BME280;11554;51.106;3.684;2023-09-19T03:30:00;100975.33;;;13.64;100.0
22775;BME280;11554;51.106;3.684;2023-09-19T03:35:00;100974.81;;;13.67;100.0
22775;BME280;11554;51.106;3.684;2023-09-19T03:40:00;100978.28;;;13.71;100.0
22775;BME280;11554;51.106;3.684;2023-09-19T03:45:00;100978.94;;;13.71;100.0
22775;BME280;11554;51.106;3.684;2023-09-19T03:50:00;100973.06999999999;;;13.69;100.0
22775;BME280;11554;51.106;3.684;2023-09-19T03:55:00;100973.86;;;13.63;100.0
22775;BME280;11554;51.106;3.684;2023-09-19T04:00:00;100965.59;;;13.49;100.0
22775;BME280;11554;51.106;3.684;2023-09-19T04:05:00;100960.36;;;13.38;100.0
22775;BME280;11554;51.106;3.684;2023-09-19T04:10:00;100968.16;;;13.26;100.0
22775;BME280;11554;51.106;3.684;2023-09-19T04:15:00;100967.65000000001;;;13.17;100.0
22775;BME280;11554;51.106;3.684;2023-09-19T04:20:00;100970.84;;;13.06;100.0
22775;BME280;11554;51.106;3.684;2023-09-19T04:25:00;100979.06;;;13.05;100.0
22775;BME280;11554;51.106;3.684;2023-09-19T04:30:00;100987.0;;;13.00;100.0
22775;BME280;11554;51.106;3.684;2023-09-19T04:35:00;100995.43;;;12.99;100.0
22775;BME280;11554;51.106;3.684;2023-09-19T04:40:00;101001.58;;;13.00;100.0
22775;BME280;11554;51.106;3.684;2023-09-19T04:45:00;101005.17;;;12.96;100.0
22775;BME280;11554;51.106;3.684;2023-09-19T04:50:00;101013.65;;;12.93;100.0
22775;BME280;11554;51.106;3.684;2023-09-19T04:55:00;101011.36;;;12.98;100.0
22775;BME280;11554;51.106;3.684;2023-09-19T05:00:00;100997.63;;;12.96;100.0
22775;BME280;11554;51.106;3.684;2023-09-19T05:05:00;100993.08;;;12.94;100.0
22775;BME280;11554;51.106;3.684;2023-09-19T05:10:00;100987.53;;;12.97;100.0
22775;BME280;11554;51.106;3.684;2023-09-19T05:15:00;100987.45;;;13.02;100.0
22775;BME280;11554;51.106;3.684;2023-09-19T05:20:00;100990.23;;;13.09;100.0
22775;BME280;11554;51.106;3.684;2023-09-19T05:25:00;101006.86;;;13.16;100.0
22775;BME280;11554;51.106;3.684;2023-09-19T05:30:00;101000.73;;;13.20;100.0
22775;BME280;11554;51.106;3.684;2023-09-19T05:35:00;101000.85;;;13.18;100.0
22775;BME280;11554;51.106;3.684;2023-09-19T05:40:00;101007.58;;;13.16;100.0
22775;BME280;11554;51.106;3.684;2023-09-19T05:45:00;101007.92;;;13.22;100.0
22775;BME280;11554;51.106;3.684;2023-09-19T05:50:00;101011.36;;;13.29;100.0
22775;BME280;11554;51.106;3.684;2023-09-19T05:55:00;101005.89;;;13.31;100.0
22775;BME280;11554;51.106;3.684;2023-09-19T06:00:00;101009.66;;;13.37;100.0
22775;BME280;11554;51.106;3.684;2023-09-19T06:05:00;101012.0;;;13.46;100.0
22775;BME280;11554;51.106;3.684;2023-09-19T06:10:00;101013.95;;;13.53;100.0
22775;BME280;11554;51.106;3.684;2023-09-19T06:15:00;101022.72;;;13.59;100.0
22775;BME280;11554;51.106;3.684;2023-09-19T06:20:00;101014.07;;;13.66;100.0
22775;BME280;11554;51.106;3.684;2023-09-19T06:25:00;101022.96;;;13.74;100.0
22775;BME280;11554;51.106;3.684;2023-09-19T06:30:00;101025.06;;;13.78;100.0
22775;BME280;11554;51.106;3.684;2023-09-19T06:35:00;101026.14;;;13.81;100.0
22775;BME280;11554;51.106;3.684;2023-09-19T06:40:00;101036.58;;;13.91;100.0
22775;BME280;11554;51.106;3.684;2023-09-19T06:45:00;101029.40999999999;;;14.02;100.0
22775;BME280;11554;51.106;3.684;2023-09-19T06:50:00;101024.32;;;14.14;100.0
22775;BME280;11554;51.106;3.684;2023-09-19T06:55:00;101017.52;;;14.24;100.0
22775;BME280;11554;51.106;3.684;2023-09-19T07:00:00;101011.93;;;14.36;100.0
22775;BME280;11554;51.106;3.684;2023-09-19T07:05:00;101025.8;;;14.51;100.0
22775;BME280;11554;51.106;3.684;2023-09-19T07:10:00;101025.45999999999;;;14.76;100.0
22775;BME280;11554;51.106;3.684;2023-09-19T07:15:00;101020.65;;;14.98;100.0
22775;BME280;11554;51.106;3.684;2023-09-19T07:20:00;101018.15000000001;;;15.16;100.0
22775;BME280;11554;51.106;3.684;2023-09-19T07:25:00;101023.46;;;15.29;100.0
22775;BME280;11554;51.106;3.684;2023-09-19T07:30:00;101020.23000000001;;;15.43;100.0
22775;BME280;11554;51.106;3.684;2023-09-19T07:35:00;101020.7;;;15.57;100.0
22775;BME280;11554;51.106;3.684;2023-09-19T07:40:00;101022.25;;;15.89;100.0
22775;BME280;11554;51.106;3.684;2023-09-19T07:45:00;101012.59999999999;;;16.16;100.0
22775;BME280;11554;51.106;3.684;2023-09-19T07:50:00;101015.81;;;16.30;100.0
22775;BME280;11554;51.106;3.684;2023-09-19T07:55:00;101012.91;;;16.38;100.0
22775;BME280;11554;51.106;3.684;2023-09-19T08:00:00;101021.73;;;16.49;100.0
22775;BME280;11554;51.106;3.684;2023-09-19T08:05:00;101017.1;;;16.74;100.0
22775;BME280;11554;51.106;3.684;2023-09-19T08:10:00;101015.58;;;17.00;100.0
22775;BME280;11554;51.106;3.684;2023-09-19T08:15:00;101007.03;;;17.16;100.0
22775;BME280;11554;51.106;3.684;2023-09-19T08:20:00;101017.31;;;17.41;100.0
22775;BME280;11554;51.106;3.684;2023-09-19T08:25:00;101002.59;;;17.69;100.0
22775;BME280;11554;51.106;3.684;2023-09-19T08:30:00;100990.41;;;17.78;99.34
22775;BME280;11554;51.106;3.684;2023-09-19T08:35:00;101004.16;;;17.90;99.0
22775;BME280;11554;51.106;3.684;2023-09-19T08:40:00;100998.83;;;17.87;98.06
22775;BME280;11554;51.106;3.684;2023-09-19T08:45:00;101004.38;;;17.65;97.51
22775;BME280;11554;51.106;3.684;2023-09-19T08:50:01;100999.55;;;17.77;97.81
22775;BME280;11554;51.106;3.684;2023-09-19T08:55:01;100995.26;;;18.09;96.99
22775;BME280;11554;51.106;3.684;2023-09-19T09:00:00;101004.85;;;18.32;95.53
22775;BME280;11554;51.106;3.684;2023-09-19T09:05:00;101009.03;;;18.59;94.88
22775;BME280;11554;51.106;3.684;2023-09-19T09:10:00;100997.66;;;18.39;94.3
22775;BME280;11554;51.106;3.684;2023-09-19T09:15:00;100986.8;;;18.20;94.65
22775;BME280;11554;51.106;3.684;2023-09-19T09:20:00;100988.51;;;18.12;95.35
22775;BME280;11554;51.106;3.684;2023-09-19T09:25:00;100984.45;;;18.11;95.2
22775;BME280;11554;51.106;3.684;2023-09-19T09:30:00;100974.5;;;18.24;96.39
22775;BME280;11554;51.106;3.684;2023-09-19T09:35:00;100974.44;;;18.25;93.26
22775;BME280;11554;51.106;3.684;2023-09-19T09:40:00;100988.17;;;18.72;94.85
22775;BME280;11554;51.106;3.684;2023-09-19T09:50:00;100977.19;;;19.11;91.71
22775;BME280;11554;51.106;3.684;2023-09-19T09:55:00;100969.89;;;19.68;91.48
22775;BME280;11554;51.106;3.684;2023-09-19T10:00:00;100979.53;;;20.26;89.51
22775;BME280;11554;51.106;3.684;2023-09-19T10:05:00;100957.64;;;20.82;88.08
22775;BME280;11554;51.106;3.684;2023-09-19T10:10:00;100958.76;;;20.10;87.99
22775;BME280;11554;51.106;3.684;2023-09-19T10:15:00;100961.69;;;20.23;89.47
22775;BME280;11554;51.106;3.684;2023-09-19T10:20:00;100961.22;;;20.68;85.11
22775;BME280;11554;51.106;3.684;2023-09-19T10:25:00;100954.71;;;21.01;84.1
22775;BME280;11554;51.106;3.684;2023-09-19T10:30:00;100952.0;;;20.81;82.91
22775;BME280;11554;51.106;3.684;2023-09-19T10:35:00;100951.62;;;20.86;84.31
22775;BME280;11554;51.106;3.684;2023-09-19T10:40:00;100943.3;;;21.03;83.37
22775;BME280;11554;51.106;3.684;2023-09-19T10:45:00;100937.98000000001;;;21.29;83.51
22775;BME280;11554;51.106;3.684;2023-09-19T10:50:00;100941.15000000001;;;21.56;82.67
22775;BME280;11554;51.106;3.684;2023-09-19T10:55:00;100938.53;;;22.02;82.75
22775;BME280;11554;51.106;3.684;2023-09-19T11:00:00;100950.59;;;22.00;80.45
22775;BME280;11554;51.106;3.684;2023-09-19T11:05:10;100930.28;;;21.83;79.33
22775;BME280;11554;51.106;3.684;2023-09-19T11:10:00;100933.28;;;22.57;80.39
22775;BME280;11554;51.106;3.684;2023-09-19T11:15:00;100946.04000000001;;;22.58;79.58
22775;BME280;11554;51.106;3.684;2023-09-19T11:35:06;100920.39;;;21.52;79.92
22775;BME280;11554;51.106;3.684;2023-09-19T11:40:07;100935.27;;;21.47;80.77
22775;BME280;11554;51.106;3.684;2023-09-19T11:45:00;100927.67;;;21.63;81.17
22775;BME280;11554;51.106;3.684;2023-09-19T11:50:00;100919.92;;;22.00;82.08
22775;BME280;11554;51.106;3.684;2023-09-19T11:55:00;100917.46;;;22.31;81.27
22775;BME280;11554;51.106;3.684;2023-09-19T12:00:00;100924.13;;;22.93;78.51
22775;BME280;11554;51.106;3.684;2023-09-19T12:05:00;100914.29000000001;;;23.46;76.72
22775;BME280;11554;51.106;3.684;2023-09-19T12:10:02;100924.72;;;22.55;78.08
22775;BME280;11554;51.106;3.684;2023-09-19T12:15:00;100937.77;;;21.96;80.6
22775;BME280;11554;51.106;3.684;2023-09-19T12:20:00;100943.7;;;21.84;81.63
22775;BME280;11554;51.106;3.684;2023-09-19T12:25:05;100939.47;;;21.70;80.34
22775;BME280;11554;51.106;3.684;2023-09-19T12:30:00;100929.94;;;21.74;80.33
22775;BME280;11554;51.106;3.684;2023-09-19T12:35:00;100928.05;;;21.68;80.97
22775;BME280;11554;51.106;3.684;2023-09-19T12:40:04;100923.81;;;21.66;81.39
22775;BME280;11554;51.106;3.684;2023-09-19T12:45:00;100930.69;;;21.97;82.47
22775;BME280;11554;51.106;3.684;2023-09-19T12:50:08;100926.23;;;21.59;80.39
22775;BME280;11554;51.106;3.684;2023-09-19T12:55:00;100915.26;;;21.61;81.32
22775;BME280;11554;51.106;3.684;2023-09-19T13:00:00;100916.22;;;21.88;81.11
22775;BME280;11554;51.106;3.684;2023-09-19T13:05:00;100918.73000000001;;;22.47;80.26
22775;BME280;11554;51.106;3.684;2023-09-19T13:10:03;100921.75;;;21.98;79.01
22775;BME280;11554;51.106;3.684;2023-09-19T13:15:07;100913.69;;;21.61;81.07
22775;BME280;11554;51.106;3.684;2023-09-19T13:20:00;100915.03;;;22.04;79.94
22775;BME280;11554;51.106;3.684;2023-09-19T13:25:00;100892.89;;;21.78;80.23
22775;BME280;11554;51.106;3.684;2023-09-19T13:30:00;100891.54;;;21.62;80.33
22775;BME280;11554;51.106;3.684;2023-09-19T13:35:00;100908.39;;;21.13;81.17
22775;BME280;11554;51.106;3.684;2023-09-19T13:40:00;100913.95;;;20.92;82.59
22775;BME280;11554;51.106;3.684;2023-09-19T13:45:00;100914.31999999999;;;20.56;83.83
22775;BME280;11554;51.106;3.684;2023-09-19T13:50:01;100912.94;;;20.38;84.2
22775;BME280;11554;51.106;3.684;2023-09-19T13:55:00;100902.98;;;20.10;84.46
22775;BME280;11554;51.106;3.684;2023-09-19T14:00:00;100896.86;;;20.55;85.16
22775;BME280;11554;51.106;3.684;2023-09-19T14:05:00;100908.98;;;20.45;84.0
22775;BME280;11554;51.106;3.684;2023-09-19T14:10:00;100901.98000000001;;;20.21;84.8
22775;BME280;11554;51.106;3.684;2023-09-19T14:15:00;100902.65000000001;;;20.08;85.99
22775;BME280;11554;51.106;3.684;2023-09-19T14:20:00;100903.94;;;19.80;86.39
22775;BME280;11554;51.106;3.684;2023-09-19T14:25:00;100914.93000000001;;;19.67;87.29
22775;BME280;11554;51.106;3.684;2023-09-19T14:30:00;100919.65;;;19.70;87.58
22775;BME280;11554;51.106;3.684;2023-09-19T14:35:00;100917.11;;;19.96;86.78
22775;BME280;11554;51.106;3.684;2023-09-19T14:40:00;100921.7;;;19.96;86.97
22775;BME280;11554;51.106;3.684;2023-09-19T14:45:00;100917.02;;;19.99;87.25
22775;BME280;11554;51.106;3.684;2023-09-19T14:50:00;100914.71;;;19.81;87.36
22775;BME280;11554;51.106;3.684;2023-09-19T14:55:00;100918.59;;;19.57;88.59
22775;BME280;11554;51.106;3.684;2023-09-19T15:00:00;100904.42;;;19.63;88.74
22775;BME280;11554;51.106;3.684;2023-09-19T15:05:00;100896.74;;;19.53;88.36
22775;BME280;11554;51.106;3.684;2023-09-19T15:10:00;100899.33;;;19.32;88.74
22775;BME280;11554;51.106;3.684;2023-09-19T15:15:00;100910.64;;;19.21;89.25
22775;BME280;11554;51.106;3.684;2023-09-19T15:20:00;100908.36;;;19.11;89.14
22775;BME280;11554;51.106;3.684;2023-09-19T15:25:00;100915.92000000001;;;18.99;89.93
22775;BME280;11554;51.106;3.684;2023-09-19T15:30:00;100915.4;;;18.96;90.97
22775;BME280;11554;51.106;3.684;2023-09-19T15:35:00;100920.0;;;18.91;91.15
22775;BME280;11554;51.106;3.684;2023-09-19T15:40:00;100914.81;;;18.89;91.22
22775;BME280;11554;51.106;3.684;2023-09-19T15:45:00;100915.68;;;18.81;91.6
22775;BME280;11554;51.106;3.684;2023-09-19T15:50:00;100907.19;;;18.85;92.55
22775;BME280;11554;51.106;3.684;2023-09-19T15:55:00;100911.99;;;18.85;92.62
22775;BME280;11554;51.106;3.684;2023-09-19T16:00:00;100905.4;;;18.82;93.04
22775;BME280;11554;51.106;3.684;2023-09-19T16:05:00;100907.3;;;18.73;94.46
22775;BME280;11554;51.106;3.684;2023-09-19T16:10:01;100900.67;;;18.61;95.6
22775;BME280;11554;51.106;3.684;2023-09-19T16:15:00;100910.18000000001;;;18.48;96.59
22775;BME280;11554;51.106;3.684;2023-09-19T16:20:00;100912.19;;;18.32;98.75
22775;BME280;11554;51.106;3.684;2023-09-19T16:25:00;100911.65999999999;;;18.17;100.0
22775;BME280;11554;51.106;3.684;2023-09-19T16:30:00;100919.89;;;17.99;100.0
22775;BME280;11554;51.106;3.684;2023-09-19T16:35:00;100921.46;;;17.80;100.0
22775;BME280;11554;51.106;3.684;2023-09-19T16:40:00;100927.58;;;17.65;100.0
22775;BME280;11554;51.106;3.684;2023-09-19T16:45:00;100930.66;;;17.48;100.0
22775;BME280;11554;51.106;3.684;2023-09-19T16:50:00;100929.81;;;17.33;100.0
22775;BME280;11554;51.106;3.684;2023-09-19T16:55:00;100927.23;;;17.27;100.0
22775;BME280;11554;51.106;3.684;2023-09-19T17:00:00;100928.42000000001;;;17.11;100.0
22775;BME280;11554;51.106;3.684;2023-09-19T17:05:00;100919.84;;;16.96;100.0
22775;BME280;11554;51.106;3.684;2023-09-19T17:10:00;100923.15999999999;;;16.87;100.0
22775;BME280;11554;51.106;3.684;2023-09-19T17:15:00;100920.6;;;16.80;100.0
22775;BME280;11554;51.106;3.684;2023-09-19T17:20:00;100930.36;;;16.77;100.0
22775;BME280;11554;51.106;3.684;2023-09-19T17:25:00;100922.28;;;16.73;100.0
22775;BME280;11554;51.106;3.684;2023-09-19T17:30:00;100914.83;;;16.71;100.0
22775;BME280;11554;51.106;3.684;2023-09-19T17:35:00;100915.32999999999;;;16.69;100.0
22775;BME280;11554;51.106;3.684;2023-09-19T17:40:00;100912.71;;;16.65;100.0
22775;BME280;11554;51.106;3.684;2023-09-19T17:45:00;100911.3;;;16.65;100.0
22775;BME280;11554;51.106;3.684;2023-09-19T17:50:00;100902.09;;;16.64;100.0
22775;BME280;11554;51.106;3.684;2023-09-19T17:55:00;100879.40999999999;;;16.65;100.0
22775;BME280;11554;51.106;3.684;2023-09-19T18:00:00;100870.84999999999;;;16.67;100.0
22775;BME280;11554;51.106;3.684;2023-09-19T18:05:00;100882.03;;;16.68;100.0
22775;BME280;11554;51.106;3.684;2023-09-19T18:10:00;100904.16;;;16.69;100.0
22775;BME280;11554;51.106;3.684;2023-09-19T18:15:00;100901.87;;;16.72;100.0
22775;BME280;11554;51.106;3.684;2023-09-19T18:20:00;100897.41;;;16.75;100.0
22775;BME280;11554;51.106;3.684;2023-09-19T18:25:00;100891.06;;;16.77;100.0
22775;BME280;11554;51.106;3.684;2023-09-19T18:30:00;100893.08;;;16.79;100.0
22775;BME280;11554;51.106;3.684;2023-09-19T18:35:00;100889.53;;;16.81;100.0
22775;BME280;11554;51.106;3.684;2023-09-19T18:40:00;100880.69;;;16.83;100.0
22775;BME280;11554;51.106;3.684;2023-09-19T18:45:00;100891.81999999999;;;16.84;100.0
22775;BME280;11554;51.106;3.684;2023-09-19T18:50:01;100893.05;;;16.89;100.0
22775;BME280;11554;51.106;3.684;2023-09-19T18:55:00;100898.51;;;16.92;100.0
22775;BME280;11554;51.106;3.684;2023-09-19T19:00:00;100896.37;;;16.95;100.0
22775;BME280;11554;51.106;3.684;2023-09-19T19:05:00;100900.0;;;16.98;100.0
22775;BME280;11554;51.106;3.684;2023-09-19T19:10:00;100893.15000000001;;;17.03;100.0
22775;BME280;11554;51.106;3.684;2023-09-19T19:15:00;100894.65;;;17.04;100.0
22775;BME280;11554;51.106;3.684;2023-09-19T19:20:00;100892.47;;;17.04;100.0
22775;BME280;11554;51.106;3.684;2023-09-19T19:25:00;100890.36;;;17.06;100.0
22775;BME280;11554;51.106;3.684;2023-09-19T19:30:00;100888.59;;;17.10;100.0
22775;BME280;11554;51.106;3.684;2023-09-19T19:35:00;100896.73;;;17.10;100.0
22775;BME280;11554;51.106;3.684;2023-09-19T19:40:00;100892.11;;;17.15;100.0
22775;BME280;11554;51.106;3.684;2023-09-19T19:45:00;100888.45999999999;;;17.17;100.0
22775;BME280;11554;51.106;3.684;2023-09-19T19:50:00;100886.58;;;17.16;100.0
22775;BME280;11554;51.106;3.684;2023-09-19T19:55:00;100895.87;;;17.19;100.0
22775;BME280;11554;51.106;3.684;2023-09-19T20:00:00;100901.05;;;17.22;100.0
22775;BME280;11554;51.106;3.684;2023-09-19T20:05:00;100906.6;;;17.24;100.0
22775;BME280;11554;51.106;3.684;2023-09-19T20:10:00;100907.12;;;17.26;100.0
22775;BME280;11554;51.106;3.684;2023-09-19T20:15:00;100898.20999999999;;;17.28;100.0
22775;BME280;11554;51.106;3.684;2023-09-19T20:20:00;100908.83;;;17.29;100.0
22775;BME280;11554;51.106;3.684;2023-09-19T20:25:00;100903.31;;;17.30;100.0
22775;BME280;11554;51.106;3.684;2023-09-19T20:30:00;100899.2;;;17.34;100.0
22775;BME280;11554;51.106;3.684;2023-09-19T20:35:00;100890.5;;;17.37;100.0
22775;BME280;11554;51.106;3.684;2023-09-19T20:40:00;100889.67;;;17.39;100.0
22775;BME280;11554;51.106;3.684;2023-09-19T20:45:00;100890.09;;;17.39;100.0
22775;BME280;11554;51.106;3.684;2023-09-19T20:50:00;100889.42;;;17.42;100.0
22775;BME280;11554;51.106;3.684;2023-09-19T20:55:00;100885.75;;;17.42;100.0
22775;BME280;11554;51.106;3.684;2023-09-19T21:00:00;100881.73000000001;;;17.47;100.0
22775;BME280;11554;51.106;3.684;2023-09-19T21:05:00;100881.23000000001;;;17.47;100.0
22775;BME280;11554;51.106;3.684;2023-09-19T21:10:00;100879.6;;;17.50;100.0
22775;BME280;11554;51.106;3.684;2023-09-19T21:15:00;100871.81;;;17.52;100.0
22775;BME280;11554;51.106;3.684;2023-09-19T21:20:00;100871.81;;;17.52;100.0
22775;BME280;11554;51.106;3.684;2023-09-19T21:25:00;100865.55;;;17.55;100.0
22775;BME280;11554;51.106;3.684;2023-09-19T21:30:00;100863.71;;;17.57;100.0
22775;BME280;11554;51.106;3.684;2023-09-19T21:35:00;100865.26;;;17.58;100.0
22775;BME280;11554;51.106;3.684;2023-09-19T21:40:00;100856.52;;;17.55;100.0
22775;BME280;11554;51.106;3.684;2023-09-19T21:45:00;100851.56;;;17.53;100.0
22775;BME280;11554;51.106;3.684;2023-09-19T21:50:00;100853.41;;;17.49;100.0
22775;BME280;11554;51.106;3.684;2023-09-19T21:55:00;100849.51;;;17.50;100.0
22775;BME280;11554;51.106;3.684;2023-09-19T22:00:00;100839.43000000001;;;17.41;100.0
22775;BME280;11554;51.106;3.684;2023-09-19T22:05:00;100834.53;;;17.30;100.0
22775;BME280;11554;51.106;3.684;2023-09-19T22:10:00;100849.17;;;17.21;100.0
22775;BME280;11554;51.106;3.684;2023-09-19T22:15:00;100851.48000000001;;;17.14;100.0
22775;BME280;11554;51.106;3.684;2023-09-19T22:20:00;100850.21;;;17.08;100.0
22775;BME280;11554;51.106;3.684;2023-09-19T22:25:00;100847.85;;;17.04;100.0
22775;BME280;11554;51.106;3.684;2023-09-19T22:30:00;100847.88;;;17.03;100.0
22775;BME280;11554;51.106;3.684;2023-09-19T22:35:00;100844.05;;;17.04;100.0
22775;BME280;11554;51.106;3.684;2023-09-19T22:40:00;100849.2;;;17.08;100.0
22775;BME280;11554;51.106;3.684;2023-09-19T22:45:00;100847.77;;;17.18;100.0
22775;BME280;11554;51.106;3.684;2023-09-19T22:50:00;100847.03;;;17.24;100.0
22775;BME280;11554;51.106;3.684;2023-09-19T22:55:00;100843.58;;;17.28;100.0
22775;BME280;11554;51.106;3.684;2023-09-19T23:00:00;100844.09000000001;;;17.30;100.0
22775;BME280;11554;51.106;3.684;2023-09-19T23:05:00;100844.6;;;17.30;100.0
22775;BME280;11554;51.106;3.684;2023-09-19T23:10:00;100851.67;;;17.31;100.0
22775;BME280;11554;51.106;3.684;2023-09-19T23:15:00;100851.56;;;17.32;100.0
22775;BME280;11554;51.106;3.684;2023-09-19T23:20:00;100849.98000000001;;;17.31;100.0
22775;BME280;11554;51.106;3.684;2023-09-19T23:25:00;100853.23;;;17.31;100.0
22775;BME280;11554;51.106;3.684;2023-09-19T23:30:00;100842.90999999999;;;17.30;100.0
22775;BME280;11554;51.106;3.684;2023-09-19T23:35:00;100846.91;;;17.27;100.0
22775;BME280;11554;51.106;3.684;2023-09-19T23:40:00;100845.56;;;17.26;100.0
22775;BME280;11554;51.106;3.684;2023-09-19T23:45:00;100844.16;;;17.25;100.0
22775;BME280;11554;51.106;3.684;2023-09-19T23:50:00;100843.42;;;17.23;100.0
22775;BME280;11554;51.106;3.684;2023-09-19T23:55:00;100851.28;;;17.22;100.0
